createdAt,value
2019-03-31T00:02:25.218Z,8.40
2019-03-31T00:04:55.327Z,8.40
2019-03-31T00:07:25.415Z,8.40
2019-03-31T00:09:55.532Z,8.30
2019-03-31T00:12:25.629Z,8.30
2019-03-31T00:14:55.759Z,8.30
2019-03-31T00:17:25.856Z,8.30
2019-03-31T00:19:55.978Z,8.30
2019-03-31T00:22:26.071Z,8.30
2019-03-31T00:24:57.780Z,8.30
2019-03-31T00:27:27.911Z,8.30
2019-03-31T00:29:58.018Z,8.30
2019-03-31T00:32:28.108Z,8.20
2019-03-31T00:34:58.231Z,8.20
2019-03-31T00:37:28.334Z,8.20
2019-03-31T00:39:58.449Z,8.20
2019-03-31T00:42:28.541Z,8.10
2019-03-31T00:44:58.650Z,8.00
2019-03-31T00:47:28.779Z,8.00
2019-03-31T00:49:58.925Z,8.00
2019-03-31T00:52:28.971Z,8.10
2019-03-31T00:54:59.083Z,8.10
2019-03-31T00:57:29.155Z,8.00
2019-03-31T00:59:59.280Z,8.00
2019-03-31T01:02:32.645Z,8.00
2019-03-31T01:05:04.660Z,8.00
2019-03-31T01:07:34.802Z,7.90
2019-03-31T01:10:05.451Z,7.90
2019-03-31T01:12:35.696Z,7.90
2019-03-31T01:15:11.204Z,7.80
2019-03-31T01:17:41.290Z,7.80
2019-03-31T01:20:11.413Z,7.80
2019-03-31T01:22:41.546Z,7.70
2019-03-31T01:25:12.967Z,7.70
2019-03-31T01:27:43.074Z,7.60
2019-03-31T01:30:13.261Z,7.50
2019-03-31T01:32:43.359Z,7.50
2019-03-31T01:35:14.303Z,7.50
2019-03-31T01:37:44.507Z,7.50
2019-03-31T01:40:15.119Z,7.50
2019-03-31T01:42:45.227Z,7.50
2019-03-31T01:45:15.547Z,7.50
2019-03-31T01:47:45.670Z,7.50
2019-03-31T01:50:17.667Z,7.40
2019-03-31T01:52:47.798Z,7.40
2019-03-31T01:55:17.984Z,7.30
2019-03-31T01:57:48.071Z,7.30
2019-03-31T02:00:43.404Z,7.20
2019-03-31T02:03:13.691Z,7.20
2019-03-31T02:05:43.766Z,7.20
2019-03-31T02:08:13.876Z,7.20
2019-03-31T02:10:43.975Z,7.10
2019-03-31T02:13:14.055Z,7.10
2019-03-31T02:15:44.190Z,7.10
2019-03-31T02:18:14.275Z,7.10
2019-03-31T02:20:44.414Z,7.00
2019-03-31T02:23:14.510Z,7.00
2019-03-31T02:25:44.630Z,7.00
2019-03-31T02:28:14.764Z,6.90
2019-03-31T02:30:44.840Z,6.90
2019-03-31T02:33:14.940Z,6.90
2019-03-31T02:35:45.022Z,6.90
2019-03-31T02:38:15.135Z,6.90
2019-03-31T02:40:45.248Z,6.90
2019-03-31T02:43:15.406Z,6.80
2019-03-31T02:45:45.482Z,6.90
2019-03-31T02:48:15.590Z,6.90
2019-03-31T02:50:52.315Z,6.90
2019-03-31T02:53:22.534Z,6.80
2019-03-31T02:55:53.724Z,6.80
2019-03-31T02:58:23.894Z,6.80
2019-03-31T03:00:54.497Z,6.70
2019-03-31T03:03:24.623Z,6.70
2019-03-31T03:05:57.164Z,6.70
2019-03-31T03:08:28.885Z,6.70
2019-03-31T03:11:01.705Z,6.70
2019-03-31T03:13:33.303Z,6.70
2019-03-31T03:16:28.089Z,6.70
2019-03-31T03:18:58.287Z,6.70
2019-03-31T03:21:28.376Z,6.60
2019-03-31T03:23:58.488Z,6.60
2019-03-31T03:26:28.630Z,6.60
2019-03-31T03:28:58.738Z,6.60
2019-03-31T03:31:28.846Z,6.60
2019-03-31T03:33:58.940Z,6.60
2019-03-31T03:36:29.018Z,6.60
2019-03-31T03:38:59.143Z,6.50
2019-03-31T03:41:29.240Z,6.50
2019-03-31T03:44:02.365Z,6.40
2019-03-31T03:46:31.094Z,6.40
2019-03-31T03:49:01.229Z,6.40
2019-03-31T03:51:31.318Z,6.40
2019-03-31T03:54:01.426Z,6.40
2019-03-31T03:56:32.872Z,6.40
2019-03-31T03:59:02.991Z,6.30
2019-03-31T04:01:33.442Z,6.30
2019-03-31T04:04:03.548Z,6.30
2019-03-31T04:06:33.630Z,6.30
2019-03-31T04:09:06.443Z,6.30
2019-03-31T04:11:36.558Z,6.20
2019-03-31T04:14:06.653Z,6.20
2019-03-31T04:16:36.756Z,6.20
2019-03-31T04:19:06.842Z,6.20
2019-03-31T04:21:36.956Z,6.10
2019-03-31T04:24:07.040Z,6.10
2019-03-31T04:26:37.179Z,6.10
2019-03-31T04:29:07.320Z,6.10
2019-03-31T04:31:37.395Z,6.10
2019-03-31T04:34:07.479Z,6.10
2019-03-31T04:36:37.649Z,6.10
2019-03-31T04:39:08.588Z,6.10
2019-03-31T04:41:38.683Z,6.10
2019-03-31T04:44:08.805Z,6.10
2019-03-31T04:46:38.933Z,6.10
2019-03-31T04:49:09.016Z,6.00
2019-03-31T04:51:39.152Z,6.00
2019-03-31T04:54:09.260Z,6.00
2019-03-31T04:56:39.346Z,6.00
2019-03-31T04:59:09.468Z,5.90
2019-03-31T05:01:39.554Z,5.90
2019-03-31T05:04:09.631Z,5.90
2019-03-31T05:06:39.763Z,5.90
2019-03-31T05:09:09.842Z,5.90
2019-03-31T05:11:39.965Z,5.90
2019-03-31T05:14:10.056Z,5.90
2019-03-31T05:16:40.175Z,5.90
2019-03-31T05:19:10.325Z,5.90
2019-03-31T05:21:40.403Z,5.90
2019-03-31T05:24:10.513Z,5.90
2019-03-31T05:26:40.623Z,5.90
2019-03-31T05:29:11.703Z,6.00
2019-03-31T05:31:41.853Z,6.00
2019-03-31T05:34:18.889Z,6.10
2019-03-31T05:36:43.657Z,6.10
2019-03-31T05:39:13.781Z,6.20
2019-03-31T05:41:43.874Z,6.20
2019-03-31T05:44:13.954Z,6.20
2019-03-31T05:46:44.283Z,6.20
2019-03-31T05:49:14.564Z,6.30
2019-03-31T05:51:44.861Z,6.30
2019-03-31T05:54:15.146Z,6.30
2019-03-31T05:56:45.414Z,6.40
2019-03-31T05:59:15.945Z,6.40
2019-03-31T06:01:46.219Z,6.50
2019-03-31T06:04:16.486Z,6.50
2019-03-31T06:06:46.800Z,6.50
2019-03-31T06:09:17.080Z,6.60
2019-03-31T06:11:47.353Z,6.70
2019-03-31T06:14:17.692Z,6.70
2019-03-31T06:16:47.965Z,6.80
2019-03-31T06:19:18.231Z,6.80
2019-03-31T06:21:48.544Z,6.80
2019-03-31T06:24:18.803Z,6.90
2019-03-31T06:26:49.060Z,7.00
2019-03-31T06:29:19.893Z,7.00
2019-03-31T06:31:50.230Z,7.00
2019-03-31T06:34:20.533Z,7.10
2019-03-31T06:36:50.814Z,7.20
2019-03-31T06:39:21.072Z,7.20
2019-03-31T06:41:51.399Z,7.30
2019-03-31T06:44:21.659Z,7.40
2019-03-31T06:46:51.921Z,7.50
2019-03-31T06:49:22.235Z,7.60
2019-03-31T06:51:52.516Z,7.70
2019-03-31T06:54:22.832Z,7.70
2019-03-31T06:56:53.145Z,7.80
2019-03-31T06:59:23.404Z,7.90
2019-03-31T07:01:53.708Z,7.90
2019-03-31T07:04:23.983Z,8.10
2019-03-31T07:06:54.235Z,8.10
2019-03-31T07:09:24.549Z,8.20
2019-03-31T07:11:54.827Z,8.20
2019-03-31T07:14:25.132Z,8.30
2019-03-31T07:16:55.417Z,8.30
2019-03-31T07:19:25.736Z,8.30
2019-03-31T07:21:56.016Z,8.40
2019-03-31T07:24:26.280Z,8.40
2019-03-31T07:26:56.588Z,8.50
2019-03-31T07:29:26.865Z,8.60
2019-03-31T07:31:57.384Z,8.70
2019-03-31T07:34:27.719Z,8.80
2019-03-31T07:36:58.011Z,8.90
2019-03-31T07:39:28.292Z,9.00
2019-03-31T07:41:58.614Z,9.00
2019-03-31T07:44:29.000Z,9.10
2019-03-31T07:46:59.265Z,9.10
2019-03-31T07:49:29.522Z,9.20
2019-03-31T07:51:59.780Z,9.20
2019-03-31T07:54:30.100Z,9.30
2019-03-31T07:57:00.452Z,9.30
2019-03-31T07:59:30.845Z,9.50
2019-03-31T08:02:01.400Z,9.60
2019-03-31T08:04:31.784Z,9.70
2019-03-31T08:07:02.075Z,9.60
2019-03-31T08:09:32.356Z,9.70
2019-03-31T08:12:02.674Z,9.80
2019-03-31T08:14:33.621Z,9.90
2019-03-31T08:17:04.059Z,10.00
2019-03-31T08:19:44.037Z,10.20
2019-03-31T08:22:14.684Z,10.30
2019-03-31T08:24:45.213Z,10.30
2019-03-31T08:27:16.583Z,10.40
2019-03-31T08:29:51.969Z,10.50
2019-03-31T08:32:18.793Z,10.60
2019-03-31T08:34:49.123Z,10.80
2019-03-31T08:37:19.484Z,11.00
2019-03-31T08:39:49.838Z,11.10
2019-03-31T08:42:20.128Z,11.20
2019-03-31T08:44:50.403Z,11.30
2019-03-31T08:47:20.748Z,11.40
2019-03-31T08:49:53.398Z,11.60
2019-03-31T08:52:23.730Z,11.70
2019-03-31T08:54:54.012Z,11.80
2019-03-31T08:57:24.320Z,11.90
2019-03-31T08:59:54.629Z,12.00
2019-03-31T09:02:30.603Z,12.20
2019-03-31T09:05:00.956Z,12.30
2019-03-31T09:07:31.256Z,12.50
2019-03-31T09:10:01.585Z,12.70
2019-03-31T09:12:31.895Z,12.90
2019-03-31T09:15:02.328Z,13.00
2019-03-31T09:17:32.550Z,13.00
2019-03-31T09:20:02.966Z,13.20
2019-03-31T09:22:33.232Z,13.30
2019-03-31T09:25:03.615Z,13.50
2019-03-31T09:27:33.943Z,13.60
2019-03-31T09:30:04.818Z,13.80
2019-03-31T09:32:35.115Z,14.00
2019-03-31T09:35:06.065Z,14.00
2019-03-31T09:37:36.384Z,14.20
2019-03-31T09:40:08.645Z,14.40
2019-03-31T09:42:38.939Z,14.50
2019-03-31T09:45:11.472Z,14.70
2019-03-31T09:47:41.732Z,14.80
2019-03-31T09:50:16.678Z,14.90
2019-03-31T09:52:45.065Z,15.10
2019-03-31T09:55:15.616Z,15.30
2019-03-31T09:57:45.882Z,15.40
2019-03-31T10:00:16.893Z,15.60
2019-03-31T10:02:47.152Z,15.70
2019-03-31T10:05:17.508Z,15.80
2019-03-31T10:07:48.236Z,15.90
2019-03-31T10:10:31.314Z,16.00
2019-03-31T10:13:01.849Z,16.10
2019-03-31T10:15:32.128Z,16.10
2019-03-31T10:18:02.404Z,16.20
2019-03-31T10:20:32.704Z,16.30
2019-03-31T10:23:03.082Z,16.50
2019-03-31T10:25:33.345Z,16.60
2019-03-31T10:28:03.896Z,16.70
2019-03-31T10:30:35.636Z,16.80
2019-03-31T10:33:07.040Z,16.90
2019-03-31T10:35:37.861Z,17.00
2019-03-31T10:38:08.800Z,17.10
2019-03-31T10:40:39.248Z,17.10
2019-03-31T10:43:09.564Z,17.10
2019-03-31T10:45:39.776Z,17.20
2019-03-31T10:48:20.262Z,17.40
2019-03-31T10:50:42.004Z,17.60
2019-03-31T10:53:12.488Z,17.90
2019-03-31T10:55:42.808Z,18.10
2019-03-31T10:58:13.097Z,18.30
2019-03-31T11:00:44.730Z,18.40
2019-03-31T11:03:15.300Z,18.30
2019-03-31T11:05:45.560Z,18.30
2019-03-31T11:08:15.863Z,18.50
2019-03-31T11:10:46.152Z,18.70
2019-03-31T11:13:16.432Z,18.80
2019-03-31T11:15:46.728Z,18.90
2019-03-31T11:18:17.003Z,18.90
2019-03-31T11:20:47.272Z,18.90
2019-03-31T11:23:28.008Z,19.00
2019-03-31T11:25:58.292Z,19.00
2019-03-31T11:28:28.563Z,19.10
2019-03-31T11:30:58.888Z,19.20
2019-03-31T11:33:29.149Z,19.30
2019-03-31T11:35:59.483Z,19.30
2019-03-31T11:38:29.759Z,19.50
2019-03-31T11:41:00.091Z,19.40
2019-03-31T11:43:30.395Z,19.30
2019-03-31T11:46:00.659Z,19.40
2019-03-31T11:48:30.975Z,19.50
2019-03-31T11:51:02.332Z,19.50
2019-03-31T11:53:32.684Z,19.60
2019-03-31T11:56:05.220Z,19.60
2019-03-31T11:58:35.497Z,19.80
2019-03-31T12:01:05.894Z,19.90
2019-03-31T12:03:36.156Z,20.10
2019-03-31T12:06:06.411Z,20.30
2019-03-31T12:08:36.717Z,20.50
2019-03-31T12:11:06.980Z,20.70
2019-03-31T12:13:37.277Z,20.90
2019-03-31T12:16:07.543Z,21.00
2019-03-31T12:18:37.822Z,21.10
2019-03-31T12:21:08.140Z,21.30
2019-03-31T12:23:38.596Z,21.40
2019-03-31T12:26:08.928Z,21.60
2019-03-31T12:28:39.209Z,21.80
2019-03-31T12:31:09.615Z,22.00
2019-03-31T12:33:39.947Z,22.00
2019-03-31T12:36:10.213Z,22.00
2019-03-31T12:38:40.510Z,21.90
2019-03-31T12:41:11.010Z,22.10
2019-03-31T12:43:41.333Z,22.30
2019-03-31T12:46:11.592Z,22.50
2019-03-31T12:48:41.861Z,22.80
2019-03-31T12:51:12.179Z,22.90
2019-03-31T12:53:42.454Z,23.00
2019-03-31T12:56:12.770Z,22.90
2019-03-31T12:58:43.101Z,22.90
2019-03-31T13:01:13.387Z,23.00
2019-03-31T13:03:43.698Z,22.90
2019-03-31T13:06:13.982Z,23.00
2019-03-31T13:08:44.271Z,23.20
2019-03-31T13:11:14.580Z,23.20
2019-03-31T13:13:44.851Z,22.90
2019-03-31T13:16:15.116Z,22.80
2019-03-31T13:18:45.480Z,22.70
2019-03-31T13:21:15.755Z,22.70
2019-03-31T13:23:46.074Z,23.00
2019-03-31T13:26:16.375Z,23.20
2019-03-31T13:28:46.640Z,23.50
2019-03-31T13:31:16.936Z,23.40
2019-03-31T13:33:47.228Z,23.70
2019-03-31T13:36:17.555Z,23.80
2019-03-31T13:38:47.842Z,23.60
2019-03-31T13:41:18.233Z,23.80
2019-03-31T13:43:48.509Z,24.00
2019-03-31T13:46:18.819Z,24.10
2019-03-31T13:48:49.107Z,24.20
2019-03-31T13:51:19.378Z,24.40
2019-03-31T13:53:49.635Z,24.70
2019-03-31T13:56:20.193Z,24.80
2019-03-31T13:58:52.490Z,25.00
2019-03-31T14:01:22.698Z,25.30
2019-03-31T14:03:53.086Z,25.20
2019-03-31T14:06:23.359Z,25.30
2019-03-31T14:08:53.640Z,25.50
2019-03-31T14:11:23.914Z,25.70
2019-03-31T14:13:56.076Z,25.90
2019-03-31T14:16:29.059Z,26.10
2019-03-31T14:19:00.628Z,26.20
2019-03-31T14:21:30.890Z,25.90
2019-03-31T14:24:01.276Z,25.40
2019-03-31T14:26:31.576Z,25.30
2019-03-31T14:29:01.848Z,25.50
2019-03-31T14:31:32.103Z,25.60
2019-03-31T14:34:02.420Z,25.80
2019-03-31T14:36:34.460Z,25.90
2019-03-31T14:39:07.418Z,26.00
2019-03-31T14:41:37.780Z,26.10
2019-03-31T14:44:08.059Z,26.10
2019-03-31T14:46:38.521Z,26.10
2019-03-31T14:49:08.784Z,26.10
2019-03-31T14:51:39.103Z,26.10
2019-03-31T14:54:09.483Z,26.30
2019-03-31T14:56:39.773Z,26.50
2019-03-31T14:59:10.142Z,26.60
2019-03-31T15:01:40.443Z,26.80
2019-03-31T15:04:10.765Z,27.00
2019-03-31T15:06:41.047Z,27.20
2019-03-31T15:09:11.373Z,27.60
2019-03-31T15:11:41.644Z,28.20
2019-03-31T15:14:11.922Z,28.70
2019-03-31T15:16:42.217Z,29.20
2019-03-31T15:19:12.516Z,29.70
2019-03-31T15:21:44.351Z,30.20
2019-03-31T15:24:14.767Z,30.70
2019-03-31T15:26:45.040Z,30.70
2019-03-31T15:29:15.343Z,30.40
2019-03-31T15:31:45.611Z,30.10
2019-03-31T15:34:15.868Z,30.20
2019-03-31T15:36:46.304Z,30.30
2019-03-31T15:39:16.611Z,29.80
2019-03-31T15:41:47.017Z,29.70
2019-03-31T15:44:17.347Z,30.20
2019-03-31T15:46:47.635Z,30.70
2019-03-31T15:49:17.900Z,30.80
2019-03-31T15:51:48.216Z,30.10
2019-03-31T15:54:19.737Z,29.00
2019-03-31T15:56:50.027Z,27.70
2019-03-31T15:59:20.330Z,26.60
2019-03-31T16:01:50.610Z,25.60
2019-03-31T16:04:20.967Z,24.80
2019-03-31T16:06:51.044Z,24.10
2019-03-31T16:09:23.789Z,23.50
2019-03-31T16:11:54.042Z,23.00
2019-03-31T16:14:23.038Z,22.60
2019-03-31T16:16:52.623Z,22.30
2019-03-31T16:19:25.247Z,21.90
2019-03-31T16:21:54.785Z,21.60
2019-03-31T16:24:36.357Z,21.30
2019-03-31T16:27:05.926Z,21.10
2019-03-31T16:29:35.474Z,20.90
2019-03-31T16:32:05.163Z,20.70
2019-03-31T16:34:35.746Z,20.50
2019-03-31T16:37:05.367Z,20.30
2019-03-31T16:39:38.021Z,20.20
2019-03-31T16:42:07.312Z,20.10
2019-03-31T16:44:36.929Z,20.00
2019-03-31T16:47:06.458Z,19.90
2019-03-31T16:49:36.001Z,19.80
2019-03-31T16:52:05.752Z,19.70
2019-03-31T16:54:35.590Z,19.60
2019-03-31T16:57:05.245Z,19.40
2019-03-31T16:59:34.935Z,19.30
2019-03-31T17:02:04.558Z,19.30
2019-03-31T17:04:34.121Z,19.10
2019-03-31T17:07:03.682Z,19.00
2019-03-31T17:09:33.221Z,18.90
2019-03-31T17:12:02.764Z,18.80
2019-03-31T17:14:32.327Z,18.70
2019-03-31T17:17:01.859Z,18.50
2019-03-31T17:19:31.395Z,18.40
2019-03-31T17:22:21.567Z,18.20
2019-03-31T17:24:51.110Z,18.10
2019-03-31T17:27:20.698Z,18.00
2019-03-31T17:29:50.265Z,17.80
2019-03-31T17:32:21.090Z,17.70
2019-03-31T17:34:53.041Z,17.60
2019-03-31T17:37:22.539Z,17.40
2019-03-31T17:40:05.089Z,17.30
2019-03-31T17:42:23.298Z,17.20
2019-03-31T17:44:52.837Z,17.10
2019-03-31T17:47:22.398Z,16.90
2019-03-31T17:49:51.950Z,16.90
2019-03-31T17:52:21.506Z,16.80
2019-03-31T17:54:51.030Z,16.70
2019-03-31T17:57:20.605Z,16.60
2019-03-31T17:59:50.250Z,16.50
2019-03-31T18:02:19.791Z,16.40
2019-03-31T18:04:49.330Z,16.40
2019-03-31T18:07:18.863Z,16.30
2019-03-31T18:09:48.388Z,16.20
2019-03-31T18:12:17.944Z,16.10
2019-03-31T18:14:47.478Z,16.00
2019-03-31T18:17:17.028Z,15.90
2019-03-31T18:19:46.571Z,15.80
2019-03-31T18:22:17.067Z,15.70
2019-03-31T18:24:46.934Z,15.60
2019-03-31T18:27:16.511Z,15.50
2019-03-31T18:29:46.046Z,15.40
2019-03-31T18:32:15.585Z,15.30
2019-03-31T18:34:45.154Z,15.30
2019-03-31T18:37:14.673Z,15.20
2019-03-31T18:39:44.273Z,15.10
2019-03-31T18:42:13.852Z,15.00
2019-03-31T18:44:43.388Z,15.00
2019-03-31T18:47:12.958Z,14.90
2019-03-31T18:49:47.166Z,14.80
2019-03-31T18:52:16.681Z,14.80
2019-03-31T18:55:14.238Z,14.70
2019-03-31T18:57:51.835Z,14.70
2019-03-31T19:00:38.837Z,14.60
2019-03-31T19:03:45.614Z,14.50
2019-03-31T19:06:34.060Z,14.50
2019-03-31T19:09:29.587Z,14.50
2019-03-31T19:12:16.623Z,14.40
2019-03-31T19:15:13.386Z,14.40
2019-03-31T19:17:58.497Z,14.30
2019-03-31T19:20:49.422Z,14.20
2019-03-31T19:23:44.025Z,14.20
2019-03-31T19:26:48.838Z,14.20
2019-03-31T19:29:36.615Z,14.10
2019-03-31T19:32:23.811Z,14.00
2019-03-31T19:35:21.168Z,14.00
2019-03-31T19:38:03.473Z,14.00
2019-03-31T19:41:03.448Z,13.90
2019-03-31T19:43:46.599Z,13.90
2019-03-31T19:46:25.582Z,13.90
2019-03-31T19:49:14.044Z,13.90
2019-03-31T19:52:06.554Z,13.90
2019-03-31T19:55:07.213Z,13.80
2019-03-31T19:57:54.475Z,13.80
2019-03-31T20:01:00.891Z,13.70
2019-03-31T20:03:55.955Z,13.70
2019-03-31T20:06:48.419Z,13.70
2019-03-31T20:09:26.662Z,13.70
2019-03-31T20:12:11.730Z,13.70
2019-03-31T20:14:51.986Z,13.70
2019-03-31T20:17:43.435Z,13.60
2019-03-31T20:20:31.943Z,13.60
2019-03-31T20:23:23.407Z,13.70
2019-03-31T20:26:09.746Z,13.70
2019-03-31T20:28:49.389Z,13.70
2019-03-31T20:31:47.094Z,13.80
2019-03-31T20:34:47.551Z,13.80
2019-03-31T20:37:39.248Z,13.80
2019-03-31T20:40:30.936Z,13.80
2019-03-31T20:43:25.342Z,13.80
2019-03-31T20:45:54.936Z,13.70
2019-03-31T20:48:24.471Z,13.70
2019-03-31T20:50:54.195Z,13.70
2019-03-31T20:53:23.740Z,13.70
2019-03-31T20:55:53.280Z,13.60
2019-03-31T20:58:22.864Z,13.60
2019-03-31T21:00:52.416Z,13.60
2019-03-31T21:03:21.966Z,13.60
2019-03-31T21:05:51.528Z,13.60
2019-03-31T21:08:21.116Z,13.50
2019-03-31T21:10:50.651Z,13.50
2019-03-31T21:13:20.223Z,13.50
2019-03-31T21:15:49.748Z,13.50
2019-03-31T21:18:21.668Z,13.50
2019-03-31T21:20:51.182Z,13.50
2019-03-31T21:23:20.717Z,13.40
2019-03-31T21:25:50.271Z,13.40
2019-03-31T21:28:19.834Z,13.30
2019-03-31T21:30:49.350Z,13.30
2019-03-31T21:33:18.889Z,13.30
2019-03-31T21:35:48.758Z,13.30
2019-03-31T21:38:18.505Z,13.20
2019-03-31T21:40:48.050Z,13.20
2019-03-31T21:43:17.687Z,13.20
2019-03-31T21:45:47.686Z,13.20
2019-03-31T21:48:17.691Z,13.10
2019-03-31T21:50:47.203Z,13.10
2019-03-31T21:53:16.770Z,13.10
2019-03-31T21:55:46.314Z,13.00
2019-03-31T21:58:15.922Z,13.00
2019-03-31T22:00:52.930Z,12.90
2019-03-31T22:03:22.477Z,12.90
2019-03-31T22:05:52.007Z,12.90
2019-03-31T22:08:21.576Z,12.80
2019-03-31T22:10:51.111Z,12.80
2019-03-31T22:13:20.630Z,12.70
2019-03-31T22:15:50.199Z,12.70
2019-03-31T22:18:19.714Z,12.70
2019-03-31T22:20:49.248Z,12.70
2019-03-31T22:23:18.805Z,12.70
2019-03-31T22:25:48.370Z,12.70
2019-03-31T22:28:17.913Z,12.70
2019-03-31T22:30:47.657Z,12.70
2019-03-31T22:33:17.286Z,12.70
2019-03-31T22:36:05.654Z,12.70
2019-03-31T22:38:35.208Z,12.70
2019-03-31T22:41:04.740Z,12.70
2019-03-31T22:43:34.307Z,12.70
2019-03-31T22:46:04.254Z,12.60
2019-03-31T22:48:33.830Z,12.60
2019-03-31T22:51:03.392Z,12.60
2019-03-31T22:53:32.967Z,12.60
2019-03-31T22:56:02.498Z,12.50
2019-03-31T22:58:32.046Z,12.50
2019-03-31T23:01:01.989Z,12.50
2019-03-31T23:03:31.522Z,12.40
2019-03-31T23:06:01.099Z,12.40
2019-03-31T23:08:30.670Z,12.40
2019-03-31T23:11:00.211Z,12.40
2019-03-31T23:13:29.788Z,12.40
2019-03-31T23:15:59.338Z,12.40
2019-03-31T23:18:28.881Z,12.40
2019-03-31T23:20:58.446Z,12.40
2019-03-31T23:23:28.039Z,12.40
2019-03-31T23:25:57.578Z,12.40
2019-03-31T23:28:27.132Z,12.40
2019-03-31T23:30:56.652Z,12.40
2019-03-31T23:33:26.191Z,12.40
2019-03-31T23:35:55.770Z,12.40
2019-03-31T23:38:25.331Z,12.40
2019-03-31T23:40:54.935Z,12.40
2019-03-31T23:43:24.485Z,12.40
2019-03-31T23:45:54.012Z,12.40
2019-03-31T23:48:23.551Z,12.30
2019-03-31T23:50:53.129Z,12.30
2019-03-31T23:53:22.679Z,12.30
2019-03-31T23:55:52.254Z,12.30
2019-03-31T23:58:21.830Z,12.30
